Portada
METAR-TAF:

METAR-TAF

Aeroports :

Southern Wisconsin Regional Airport

Janesville, Wisconsin, Estats Units d'Amèrica

latitud: 42-37N, longitud: 089-02W, altitud: 246 m

Observació

L'informe es va fer fa 19 minuts, a les 03:35 UTC
Vent 7 kt del Sud/Sud-Oest
Temperatura 27°C
Humitat 74%
Pressió 1014 hPa
Visibilitat: 16.1 km
Cel clar

METAR: KJVL 180335Z AUTO 20007KT 10SM CLR 27/22 A2995 RMK AO2

Hora: 22:54 (03:54 UTC)


TAF: manca

Observacions i pronòstics meteorològics de més de 4000 aeroports (METAR i TAF).

Les estacions disponibles són els punts grocs i vermells al mapa.

Posi el ratolí al punt desitjat per veure el nom de l'estació.

Feu clic per veure les observacions i els pronòstics meteorològics.

Per canviar el mapa: feu clic els botons verds amb una creu de color negre per apropar; al botó verd amb un guió per allunyar la imatge; o en les fletxes verdes per a mapes adjacents.


METAR-TAF: